createdAt,value
2022-12-25T00:00:51.100Z,29.26
2022-12-25T00:02:13.204Z,27.30
2022-12-25T00:03:15.377Z,28.52
2022-12-25T00:04:17.882Z,31.29
2022-12-25T00:05:20.065Z,30.65
2022-12-25T00:06:21.825Z,29.66
2022-12-25T00:07:31.184Z,30.20
2022-12-25T00:08:34.278Z,30.19
2022-12-25T00:09:36.260Z,29.32
2022-12-25T00:10:44.722Z,33.59
2022-12-25T00:11:47.273Z,32.15
2022-12-25T00:12:49.465Z,34.39
2022-12-25T00:13:51.414Z,34.76
2022-12-25T00:14:53.544Z,33.02
2022-12-25T00:15:56.458Z,35.26
2022-12-25T00:16:58.589Z,33.76
2022-12-25T00:18:00.662Z,29.87
2022-12-25T00:19:02.765Z,31.27
2022-12-25T00:20:05.267Z,36.03
2022-12-25T00:21:08.341Z,36.11
2022-12-25T00:22:10.827Z,37.18
2022-12-25T00:23:12.585Z,35.65
2022-12-25T00:24:14.569Z,37.22
2022-12-25T00:25:16.523Z,37.29
2022-12-25T00:26:18.421Z,33.54
2022-12-25T00:27:20.240Z,33.21
2022-12-25T00:28:24.090Z,33.72
2022-12-25T00:29:26.292Z,33.74
2022-12-25T00:30:28.563Z,36.08
2022-12-25T00:31:30.561Z,38.83
2022-12-25T00:32:36.452Z,38.39
2022-12-25T00:33:40.678Z,34.14
2022-12-25T00:34:42.663Z,31.12
2022-12-25T00:35:45.215Z,40.35
2022-12-25T00:36:50.723Z,39.82
2022-12-25T00:37:52.605Z,39.94
2022-12-25T00:38:55.012Z,37.00
2022-12-25T00:39:57.309Z,35.64
2022-12-25T00:40:59.986Z,38.92
2022-12-25T00:42:20.476Z,42.31
2022-12-25T00:43:23.065Z,33.20
2022-12-25T00:44:25.363Z,34.67
2022-12-25T00:45:27.435Z,31.87
2022-12-25T00:46:29.486Z,31.45
2022-12-25T00:47:31.916Z,31.69
2022-12-25T00:48:34.680Z,32.13
2022-12-25T00:49:36.619Z,32.23
2022-12-25T00:50:39.063Z,35.08
2022-12-25T00:51:41.038Z,33.95
2022-12-25T00:52:42.829Z,30.20
2022-12-25T00:53:44.768Z,27.58
2022-12-25T00:54:49.249Z,29.30
2022-12-25T00:55:57.225Z,31.81
2022-12-25T00:56:59.180Z,28.78
2022-12-25T00:58:04.451Z,29.26
2022-12-25T00:59:06.841Z,28.56
2022-12-25T01:00:10.321Z,25.51
2022-12-25T01:01:13.621Z,26.70
2022-12-25T01:02:25.377Z,28.09
2022-12-25T01:03:28.423Z,26.86
2022-12-25T01:04:30.583Z,26.69
2022-12-25T01:05:32.548Z,26.99
2022-12-25T01:06:35.288Z,28.56
2022-12-25T01:07:37.459Z,28.26
2022-12-25T01:09:02.876Z,27.35
2022-12-25T01:10:24.080Z,27.18
2022-12-25T01:11:27.644Z,27.26
2022-12-25T01:12:30.734Z,26.47
2022-12-25T01:13:37.051Z,27.59
2022-12-25T01:14:39.073Z,30.53
2022-12-25T01:15:41.036Z,27.45
2022-12-25T01:16:43.098Z,26.29
2022-12-25T01:17:46.075Z,29.32
2022-12-25T01:18:47.917Z,27.12
2022-12-25T01:19:49.833Z,26.35
2022-12-25T01:20:51.843Z,25.35
2022-12-25T01:21:53.714Z,25.45
2022-12-25T01:22:55.846Z,25.79
2022-12-25T01:25:14.733Z,24.71
2022-12-25T01:26:18.922Z,25.44
2022-12-25T01:27:20.983Z,24.97
2022-12-25T01:28:22.943Z,24.59
2022-12-25T01:29:24.928Z,27.56
2022-12-25T01:30:27.349Z,25.39
2022-12-25T01:31:29.360Z,23.86
2022-12-25T01:32:31.387Z,22.31
2022-12-25T01:33:33.253Z,21.57
2022-12-25T01:34:35.183Z,26.37
2022-12-25T01:35:39.730Z,24.54
2022-12-25T01:36:41.663Z,25.21
2022-12-25T01:37:43.583Z,23.97
2022-12-25T01:38:46.835Z,23.90
2022-12-25T01:39:48.679Z,25.36
2022-12-25T01:40:50.827Z,23.16
2022-12-25T01:41:52.710Z,26.08
2022-12-25T01:42:54.793Z,24.22
2022-12-25T01:44:05.812Z,23.17
2022-12-25T01:45:30.932Z,24.40
2022-12-25T01:46:34.328Z,26.18
2022-12-25T01:47:36.427Z,22.44
2022-12-25T01:48:39.770Z,21.86
2022-12-25T01:49:46.387Z,24.75
2022-12-25T01:50:55.563Z,24.57
2022-12-25T01:52:03.287Z,24.36
2022-12-25T01:53:06.902Z,21.75
2022-12-25T01:54:35.268Z,20.76
2022-12-25T01:55:39.798Z,20.46
2022-12-25T01:56:44.748Z,20.03
2022-12-25T01:57:46.955Z,20.98
2022-12-25T01:58:49.157Z,20.89
2022-12-25T01:59:52.099Z,20.81
2022-12-25T02:00:54.447Z,20.81
2022-12-25T02:01:57.484Z,19.82
2022-12-25T02:03:00.199Z,19.84
2022-12-25T02:04:20.174Z,20.62
2022-12-25T02:05:32.482Z,18.67
2022-12-25T02:06:35.854Z,19.41
2022-12-25T02:07:41.402Z,18.77
2022-12-25T02:08:44.205Z,19.20
2022-12-25T02:09:47.707Z,18.57
2022-12-25T02:10:49.862Z,18.86
2022-12-25T02:11:57.818Z,19.21
2022-12-25T02:13:02.256Z,19.04
2022-12-25T02:14:04.211Z,18.83
2022-12-25T02:15:11.136Z,18.46
2022-12-25T02:16:21.061Z,17.96
2022-12-25T02:17:36.065Z,19.02
2022-12-25T02:18:49.413Z,17.34
2022-12-25T02:19:53.895Z,18.15
2022-12-25T02:21:01.640Z,18.13
2022-12-25T02:22:29.559Z,17.26
2022-12-25T02:23:46.968Z,17.56
2022-12-25T02:24:57.600Z,17.91
2022-12-25T02:26:27.887Z,17.68
2022-12-25T02:27:52.610Z,18.84
2022-12-25T02:29:03.708Z,18.98
2022-12-25T02:30:09.146Z,17.52
2022-12-25T02:31:38.645Z,17.13
2022-12-25T02:33:16.647Z,16.85
2022-12-25T02:34:52.117Z,18.24
2022-12-25T02:35:57.076Z,17.09
2022-12-25T02:37:12.791Z,17.74
2022-12-25T02:38:24.340Z,16.95
2022-12-25T02:40:00.626Z,16.71
2022-12-25T02:41:14.379Z,16.58
2022-12-25T02:42:50.854Z,16.75
2022-12-25T02:44:11.558Z,16.85
2022-12-25T02:45:41.179Z,16.91
2022-12-25T02:47:02.932Z,16.55
2022-12-25T02:48:25.422Z,16.93
2022-12-25T02:49:49.657Z,16.96
2022-12-25T02:51:12.342Z,17.93
2022-12-25T02:52:39.907Z,17.94
2022-12-25T02:54:04.035Z,17.20
2022-12-25T02:55:43.637Z,16.18
2022-12-25T02:57:07.598Z,17.30
2022-12-25T02:58:35.577Z,16.88
2022-12-25T03:00:03.099Z,15.85
2022-12-25T03:01:32.654Z,15.78
2022-12-25T03:02:54.135Z,17.21
2022-12-25T03:04:21.103Z,18.12
2022-12-25T03:05:45.845Z,17.58
2022-12-25T03:07:04.083Z,18.83
2022-12-25T03:08:13.172Z,17.51
2022-12-25T03:09:41.562Z,19.70
2022-12-25T03:11:12.768Z,18.88
2022-12-25T03:12:29.820Z,20.87
2022-12-25T03:13:43.737Z,18.47
2022-12-25T03:15:04.384Z,17.71
2022-12-25T03:16:26.890Z,18.33
2022-12-25T03:17:31.884Z,17.95
2022-12-25T03:18:35.341Z,18.15
2022-12-25T03:19:56.897Z,18.80
2022-12-25T03:21:18.612Z,18.95
2022-12-25T03:22:47.586Z,18.63
2022-12-25T03:24:03.617Z,20.14
2022-12-25T03:25:25.035Z,17.94
2022-12-25T03:26:46.962Z,16.95
2022-12-25T03:27:55.207Z,17.03
2022-12-25T03:28:57.294Z,16.94
2022-12-25T03:30:18.506Z,16.93
2022-12-25T03:31:42.504Z,17.25
2022-12-25T03:32:58.878Z,16.92
2022-12-25T03:35:06.457Z,17.45
2022-12-25T03:36:26.749Z,17.83
2022-12-25T03:37:40.765Z,17.81
2022-12-25T03:39:42.670Z,18.99
2022-12-25T03:41:27.122Z,18.09
2022-12-25T03:43:31.057Z,20.68
2022-12-25T03:44:58.183Z,20.36
2022-12-25T03:46:27.482Z,19.83
2022-12-25T03:47:52.585Z,19.14
2022-12-25T03:49:29.359Z,19.77
2022-12-25T03:51:00.047Z,20.86
2022-12-25T03:52:25.914Z,20.57
2022-12-25T03:53:55.027Z,20.59
2022-12-25T03:55:22.689Z,21.21
2022-12-25T03:56:45.527Z,20.91
2022-12-25T03:58:05.970Z,21.90
2022-12-25T03:59:26.749Z,20.87
2022-12-25T04:00:47.174Z,20.50
2022-12-25T04:02:08.938Z,21.68
2022-12-25T04:04:10.044Z,20.18
2022-12-25T04:05:31.118Z,21.87
2022-12-25T04:06:51.879Z,21.27
2022-12-25T04:08:12.310Z,22.01
2022-12-25T04:09:33.321Z,23.28
2022-12-25T04:11:31.791Z,23.12
2022-12-25T04:12:52.394Z,23.23
2022-12-25T04:14:13.177Z,22.60
2022-12-25T04:15:34.487Z,22.85
2022-12-25T04:16:54.773Z,22.12
2022-12-25T04:18:15.730Z,21.25
2022-12-25T04:19:36.582Z,23.45
2022-12-25T04:20:56.835Z,23.29
2022-12-25T04:22:17.392Z,21.46
2022-12-25T04:23:38.319Z,22.00
2022-12-25T04:24:58.436Z,22.25
2022-12-25T04:26:19.460Z,22.71
2022-12-25T04:27:40.326Z,35.69
2022-12-25T04:29:00.824Z,23.16
2022-12-25T04:30:21.455Z,22.20
2022-12-25T04:31:42.142Z,46.07
2022-12-25T04:33:02.744Z,106.37
2022-12-25T04:34:23.529Z,43.37
2022-12-25T04:35:44.159Z,36.16
2022-12-25T04:36:45.938Z,47.65
2022-12-25T04:37:47.758Z,30.17
2022-12-25T04:38:49.604Z,41.03
2022-12-25T04:39:51.430Z,32.54
2022-12-25T04:40:53.290Z,30.37
2022-12-25T04:41:55.172Z,50.65
2022-12-25T04:42:57.324Z,37.67
2022-12-25T04:43:59.385Z,25.69
2022-12-25T04:45:01.226Z,22.16
2022-12-25T04:46:04.091Z,36.09
2022-12-25T04:47:10.971Z,31.96
2022-12-25T04:48:13.518Z,25.00
2022-12-25T04:49:15.764Z,22.70
2022-12-25T04:50:17.664Z,21.85
2022-12-25T04:51:22.995Z,19.41
2022-12-25T04:52:24.859Z,24.48
2022-12-25T04:53:26.667Z,22.56
2022-12-25T04:54:28.727Z,24.99
2022-12-25T04:55:30.614Z,28.32
2022-12-25T04:56:33.594Z,22.49
2022-12-25T04:57:35.470Z,24.60
2022-12-25T04:58:37.695Z,38.48
2022-12-25T04:59:39.588Z,26.78
2022-12-25T05:00:41.854Z,22.84
2022-12-25T05:01:44.020Z,21.86
2022-12-25T05:02:45.996Z,18.84
2022-12-25T05:03:48.258Z,20.24
2022-12-25T05:04:50.082Z,25.35
2022-12-25T05:05:52.063Z,20.69
2022-12-25T05:06:53.809Z,20.81
2022-12-25T05:07:57.462Z,18.85
2022-12-25T05:08:59.325Z,18.70
2022-12-25T05:10:01.147Z,19.62
2022-12-25T05:11:11.144Z,22.43
2022-12-25T05:12:13.248Z,25.13
2022-12-25T05:13:15.917Z,25.77
2022-12-25T05:14:17.962Z,20.99
2022-12-25T05:15:19.832Z,21.90
2022-12-25T05:16:21.729Z,28.33
2022-12-25T05:17:23.564Z,20.75
2022-12-25T05:18:25.812Z,21.50
2022-12-25T05:19:27.685Z,21.37
2022-12-25T05:20:33.375Z,24.56
2022-12-25T05:21:38.109Z,20.71
2022-12-25T05:22:42.084Z,21.93
2022-12-25T05:23:48.740Z,21.65
2022-12-25T05:24:51.192Z,21.31
2022-12-25T05:25:53.028Z,20.68
2022-12-25T05:26:55.039Z,20.73
2022-12-25T05:27:56.857Z,21.32
2022-12-25T05:28:59.307Z,27.05
2022-12-25T05:30:01.101Z,29.34
2022-12-25T05:31:03.378Z,31.30
2022-12-25T05:32:06.114Z,30.56
2022-12-25T05:33:07.927Z,42.83
2022-12-25T05:34:09.777Z,29.65
2022-12-25T05:35:11.631Z,38.55
2022-12-25T05:36:13.449Z,26.26
2022-12-25T05:37:15.685Z,22.40
2022-12-25T05:38:17.775Z,21.91
2022-12-25T05:39:19.776Z,26.66
2022-12-25T05:40:21.878Z,23.37
2022-12-25T05:41:24.616Z,20.02
2022-12-25T05:42:26.952Z,21.92
2022-12-25T05:43:29.688Z,24.32
2022-12-25T05:44:31.529Z,22.79
2022-12-25T05:45:33.518Z,20.59
2022-12-25T05:46:35.284Z,24.41
2022-12-25T05:47:37.253Z,20.83
2022-12-25T05:48:39.922Z,18.52
2022-12-25T05:49:42.427Z,20.95
2022-12-25T05:50:44.357Z,20.64
2022-12-25T05:51:46.275Z,23.14
2022-12-25T05:52:48.009Z,24.26
2022-12-25T05:53:49.784Z,21.06
2022-12-25T05:54:51.634Z,18.02
2022-12-25T05:55:53.638Z,18.15
2022-12-25T05:56:55.398Z,19.89
2022-12-25T05:57:57.591Z,21.37
2022-12-25T05:58:59.384Z,20.76
2022-12-25T06:00:01.191Z,18.43
2022-12-25T06:01:03.246Z,17.87
2022-12-25T06:02:05.594Z,20.08
2022-12-25T06:03:07.575Z,17.04
2022-12-25T06:04:12.771Z,16.67
2022-12-25T06:05:15.373Z,17.26
2022-12-25T06:06:17.761Z,17.02
2022-12-25T06:07:19.593Z,18.36
2022-12-25T06:08:21.911Z,16.56
2022-12-25T06:09:23.666Z,16.96
2022-12-25T06:10:25.562Z,14.08
2022-12-25T06:11:27.685Z,14.04
2022-12-25T06:12:29.707Z,14.93
2022-12-25T06:13:33.150Z,14.80
2022-12-25T06:14:35.952Z,14.37
2022-12-25T06:15:42.105Z,14.11
2022-12-25T06:16:44.439Z,15.12
2022-12-25T06:17:46.590Z,14.44
2022-12-25T06:18:52.269Z,13.94
2022-12-25T06:19:55.039Z,13.62
2022-12-25T06:20:56.931Z,13.13
2022-12-25T06:21:58.799Z,13.23
2022-12-25T06:23:01.368Z,12.16
2022-12-25T06:24:03.468Z,13.09
2022-12-25T06:25:05.764Z,12.85
2022-12-25T06:26:10.457Z,13.36
2022-12-25T06:27:12.440Z,13.97
2022-12-25T06:28:14.436Z,15.16
2022-12-25T06:29:17.475Z,14.11
2022-12-25T06:30:19.379Z,15.70
2022-12-25T06:31:23.872Z,15.03
2022-12-25T06:32:25.787Z,14.51
2022-12-25T06:33:27.807Z,13.65
2022-12-25T06:34:29.940Z,16.63
2022-12-25T06:35:31.802Z,15.19
2022-12-25T06:36:33.657Z,13.21
2022-12-25T06:37:35.565Z,12.99
2022-12-25T06:38:38.185Z,13.92
2022-12-25T06:39:40.030Z,14.23
2022-12-25T06:40:41.884Z,14.34
2022-12-25T06:41:43.802Z,14.24
2022-12-25T06:42:45.646Z,13.41
2022-12-25T06:43:53.171Z,13.74
2022-12-25T06:44:54.979Z,14.49
2022-12-25T06:45:56.867Z,13.77
2022-12-25T06:46:58.696Z,13.33
2022-12-25T06:48:00.457Z,13.44
2022-12-25T06:49:02.466Z,13.87
2022-12-25T06:50:06.062Z,13.55
2022-12-25T06:51:08.064Z,15.63
2022-12-25T06:52:09.870Z,13.27
2022-12-25T06:53:11.629Z,14.39
2022-12-25T06:54:14.220Z,14.07
2022-12-25T06:55:16.048Z,14.10
2022-12-25T06:56:24.245Z,13.99
2022-12-25T06:57:26.277Z,16.93
2022-12-25T06:58:28.583Z,16.00
2022-12-25T06:59:30.626Z,15.02
2022-12-25T07:00:32.494Z,14.18
2022-12-25T07:01:38.053Z,13.91
2022-12-25T07:02:48.557Z,15.53
2022-12-25T07:03:55.309Z,15.07
2022-12-25T07:05:05.706Z,13.98
2022-12-25T07:06:07.948Z,14.89
2022-12-25T07:07:10.156Z,15.88
2022-12-25T07:08:11.954Z,16.93
2022-12-25T07:09:13.756Z,16.71
2022-12-25T07:10:16.214Z,15.02
2022-12-25T07:11:20.002Z,15.65
2022-12-25T07:12:23.994Z,17.91
2022-12-25T07:13:26.299Z,15.54
2022-12-25T07:14:28.790Z,16.82
2022-12-25T07:15:30.915Z,17.78
2022-12-25T07:16:32.728Z,17.11
2022-12-25T07:17:34.931Z,17.58
2022-12-25T07:18:37.377Z,17.38
2022-12-25T07:19:44.713Z,16.61
2022-12-25T07:20:46.916Z,15.17
2022-12-25T07:21:49.151Z,16.35
2022-12-25T07:22:51.289Z,16.22
2022-12-25T07:23:53.279Z,16.33
2022-12-25T07:24:55.033Z,16.58
2022-12-25T07:25:59.635Z,15.14
2022-12-25T07:27:01.573Z,15.52
2022-12-25T07:28:03.674Z,16.57
2022-12-25T07:29:05.541Z,16.71
2022-12-25T07:30:07.926Z,16.97
2022-12-25T07:31:15.737Z,16.62
2022-12-25T07:32:17.747Z,17.54
2022-12-25T07:33:20.031Z,16.72
2022-12-25T07:34:23.150Z,16.68
2022-12-25T07:35:25.081Z,17.63
2022-12-25T07:36:28.216Z,16.82
2022-12-25T07:37:30.372Z,17.77
2022-12-25T07:38:33.274Z,16.38
2022-12-25T07:39:35.543Z,17.13
2022-12-25T07:40:38.638Z,16.73
2022-12-25T07:41:40.537Z,17.14
2022-12-25T07:42:49.081Z,16.15
2022-12-25T07:43:52.544Z,17.48
2022-12-25T07:44:54.377Z,18.79
2022-12-25T07:45:58.831Z,18.95
2022-12-25T07:47:00.789Z,18.18
2022-12-25T07:48:05.442Z,17.99
2022-12-25T07:49:08.272Z,19.21
2022-12-25T07:50:10.601Z,17.74
2022-12-25T07:51:15.096Z,17.47
2022-12-25T07:52:16.955Z,17.68
2022-12-25T07:53:19.109Z,17.53
2022-12-25T07:54:20.883Z,17.56
2022-12-25T07:55:23.187Z,18.60
2022-12-25T07:56:25.196Z,20.46
2022-12-25T07:57:27.045Z,18.42
2022-12-25T07:58:30.535Z,19.45
2022-12-25T07:59:33.240Z,18.75
2022-12-25T08:00:35.243Z,18.05
2022-12-25T08:01:37.362Z,18.94
2022-12-25T08:02:40.218Z,19.87
2022-12-25T08:03:42.875Z,20.41
2022-12-25T08:04:45.110Z,18.71
2022-12-25T08:05:47.148Z,18.63
2022-12-25T08:06:49.063Z,19.44
2022-12-25T08:07:57.650Z,19.41
2022-12-25T08:09:06.892Z,17.50
2022-12-25T08:10:09.019Z,17.85
2022-12-25T08:11:10.840Z,19.82
2022-12-25T08:12:13.778Z,18.47
2022-12-25T08:13:16.533Z,19.87
2022-12-25T08:14:18.723Z,18.74
2022-12-25T08:15:20.787Z,18.07
2022-12-25T08:16:23.170Z,18.91
2022-12-25T08:17:25.411Z,18.37
2022-12-25T08:18:30.646Z,17.53
2022-12-25T08:19:33.612Z,17.98
2022-12-25T08:20:36.182Z,20.44
2022-12-25T08:21:38.652Z,19.54
2022-12-25T08:22:40.754Z,31.36
2022-12-25T08:23:46.386Z,26.58
2022-12-25T08:24:48.370Z,24.57
2022-12-25T08:25:50.240Z,19.67
2022-12-25T08:26:52.110Z,18.42
2022-12-25T08:27:54.175Z,18.32
2022-12-25T08:28:56.436Z,20.22
2022-12-25T08:29:58.597Z,19.73
2022-12-25T08:31:10.972Z,20.28
2022-12-25T08:32:13.045Z,20.15
2022-12-25T08:33:15.173Z,20.40
2022-12-25T08:34:17.178Z,20.50
2022-12-25T08:35:19.179Z,20.49
2022-12-25T08:36:21.951Z,19.07
2022-12-25T08:37:23.774Z,18.85
2022-12-25T08:38:25.671Z,21.15
2022-12-25T08:39:27.643Z,22.18
2022-12-25T08:40:29.467Z,27.59
2022-12-25T08:41:32.297Z,30.49
2022-12-25T08:42:34.230Z,28.79
2022-12-25T08:43:36.553Z,25.31
2022-12-25T08:44:38.528Z,22.60
2022-12-25T08:45:40.596Z,24.24
2022-12-25T08:46:42.794Z,25.99
2022-12-25T08:47:44.926Z,26.74
2022-12-25T08:48:49.363Z,21.66
2022-12-25T08:49:51.324Z,16.35
2022-12-25T08:50:54.369Z,21.35
2022-12-25T08:51:56.829Z,27.00
2022-12-25T08:52:58.980Z,28.51
2022-12-25T08:54:01.312Z,24.94
2022-12-25T08:55:03.788Z,21.21
2022-12-25T08:56:06.330Z,21.89
2022-12-25T08:57:08.687Z,20.81
2022-12-25T08:58:10.780Z,22.88
2022-12-25T08:59:13.071Z,21.93
2022-12-25T09:00:16.116Z,19.89
2022-12-25T09:01:18.231Z,23.17
2022-12-25T09:02:20.885Z,21.36
2022-12-25T09:03:24.160Z,19.65
2022-12-25T09:04:26.287Z,21.66
2022-12-25T09:05:28.974Z,22.60
2022-12-25T09:06:30.807Z,21.80
2022-12-25T09:07:32.854Z,22.75
2022-12-25T09:08:35.843Z,22.80
2022-12-25T09:09:37.766Z,21.20
2022-12-25T09:10:39.714Z,20.76
2022-12-25T09:11:41.643Z,19.57
2022-12-25T09:12:43.878Z,18.98
2022-12-25T09:13:46.935Z,20.74
2022-12-25T09:14:48.903Z,22.65
2022-12-25T09:15:50.866Z,25.44
2022-12-25T09:16:52.833Z,25.23
2022-12-25T09:17:54.806Z,21.76
2022-12-25T09:19:00.599Z,21.61
2022-12-25T09:20:02.762Z,25.02
2022-12-25T09:21:08.354Z,24.23
2022-12-25T09:22:10.253Z,21.77
2022-12-25T09:23:14.303Z,22.82
2022-12-25T09:24:16.923Z,21.31
2022-12-25T09:25:18.835Z,21.83
2022-12-25T09:26:21.018Z,18.88
2022-12-25T09:27:22.831Z,20.04
2022-12-25T09:28:24.729Z,21.71
2022-12-25T09:29:26.729Z,19.09
2022-12-25T09:30:29.213Z,17.65
2022-12-25T09:31:31.438Z,19.38
2022-12-25T09:32:33.416Z,18.85
2022-12-25T09:33:35.789Z,20.39
2022-12-25T09:34:37.719Z,20.07
2022-12-25T09:35:39.626Z,20.48
2022-12-25T09:36:41.629Z,19.75
2022-12-25T09:37:43.443Z,18.28
2022-12-25T09:38:45.345Z,17.88
2022-12-25T09:39:47.803Z,18.70
2022-12-25T09:41:18.883Z,18.24
2022-12-25T09:42:28.938Z,21.12
2022-12-25T09:43:39.329Z,18.12
2022-12-25T09:44:49.142Z,20.12
2022-12-25T09:45:51.099Z,18.37
2022-12-25T09:47:05.477Z,17.98
2022-12-25T09:48:15.240Z,14.65
2022-12-25T09:49:31.812Z,14.76
2022-12-25T09:50:49.038Z,16.83
2022-12-25T09:51:59.752Z,18.60
2022-12-25T09:53:15.323Z,17.73
2022-12-25T09:54:39.840Z,16.82
2022-12-25T09:55:53.006Z,15.14
2022-12-25T09:56:55.024Z,14.86
2022-12-25T09:58:00.592Z,15.46
2022-12-25T09:59:02.604Z,14.92
2022-12-25T10:00:05.379Z,14.81
2022-12-25T10:01:55.837Z,15.59
2022-12-25T10:03:30.584Z,16.52
2022-12-25T10:04:58.510Z,15.55
2022-12-25T10:06:20.968Z,15.06
2022-12-25T10:07:26.051Z,16.09
2022-12-25T10:08:42.041Z,15.78
2022-12-25T10:10:06.803Z,15.62
2022-12-25T10:11:58.764Z,14.77
2022-12-25T10:13:34.720Z,14.59
2022-12-25T10:15:08.937Z,16.07
2022-12-25T10:16:42.247Z,15.20
2022-12-25T10:18:00.783Z,15.28
2022-12-25T10:19:21.098Z,15.63
2022-12-25T10:20:48.637Z,16.73
2022-12-25T10:22:01.543Z,16.03
2022-12-25T10:23:15.030Z,16.22
2022-12-25T10:24:23.258Z,15.76
2022-12-25T10:25:26.033Z,15.69
2022-12-25T10:26:32.974Z,17.49
2022-12-25T10:27:40.692Z,18.28
2022-12-25T10:28:57.838Z,16.43
2022-12-25T10:30:01.851Z,16.02
2022-12-25T10:31:19.372Z,15.81
2022-12-25T10:32:22.417Z,15.71
2022-12-25T10:33:24.663Z,16.09
2022-12-25T10:34:29.043Z,16.90
2022-12-25T10:35:32.995Z,16.95
2022-12-25T10:36:35.054Z,16.38
2022-12-25T10:37:37.131Z,17.05
2022-12-25T10:38:39.185Z,15.91
2022-12-25T10:39:46.577Z,16.97
2022-12-25T10:41:11.203Z,17.42
2022-12-25T10:42:43.829Z,17.03
2022-12-25T10:43:51.504Z,15.82
2022-12-25T10:44:58.740Z,15.93
2022-12-25T10:46:00.944Z,15.87
2022-12-25T10:47:04.690Z,16.17
2022-12-25T10:48:08.214Z,17.17
2022-12-25T10:49:16.711Z,17.37
2022-12-25T10:50:23.963Z,15.67
2022-12-25T10:51:39.865Z,13.86
2022-12-25T10:53:04.478Z,14.19
2022-12-25T10:54:22.405Z,15.04
2022-12-25T10:55:28.802Z,15.17
2022-12-25T10:56:31.807Z,14.70
2022-12-25T10:57:45.750Z,15.22
2022-12-25T10:58:47.869Z,15.50
2022-12-25T10:59:58.096Z,14.13
2022-12-25T11:01:05.250Z,15.85
2022-12-25T11:02:36.320Z,14.98
2022-12-25T11:03:41.889Z,15.03
2022-12-25T11:04:44.386Z,14.30
2022-12-25T11:05:51.497Z,13.71
2022-12-25T11:07:14.129Z,13.61
2022-12-25T11:08:23.140Z,12.94
2022-12-25T11:09:25.145Z,13.24
2022-12-25T11:10:37.364Z,13.00
2022-12-25T11:11:41.774Z,11.98
2022-12-25T11:12:46.291Z,12.61
2022-12-25T11:13:56.312Z,13.93
2022-12-25T11:15:02.153Z,14.44
2022-12-25T11:16:12.286Z,14.23
2022-12-25T11:17:21.697Z,13.94
2022-12-25T11:18:32.653Z,12.53
2022-12-25T11:19:34.865Z,13.92
2022-12-25T11:20:38.466Z,13.40
2022-12-25T11:21:52.707Z,13.34
2022-12-25T11:22:54.759Z,13.39
2022-12-25T11:24:02.374Z,13.87
2022-12-25T11:25:15.177Z,13.46
2022-12-25T11:26:18.776Z,13.80
2022-12-25T11:27:29.563Z,13.74
2022-12-25T11:28:35.875Z,13.33
2022-12-25T11:29:47.526Z,12.41
2022-12-25T11:30:59.401Z,12.63
2022-12-25T11:32:04.149Z,13.14
2022-12-25T11:33:12.385Z,13.73
2022-12-25T11:34:44.103Z,12.90
2022-12-25T11:35:53.133Z,12.28
2022-12-25T11:36:55.335Z,12.82
2022-12-25T11:37:57.188Z,12.45
2022-12-25T11:39:10.258Z,12.93
2022-12-25T11:40:45.169Z,13.12
2022-12-25T11:41:49.910Z,13.42
2022-12-25T11:43:11.600Z,12.59
2022-12-25T11:44:37.758Z,13.48
2022-12-25T11:45:53.887Z,13.36
2022-12-25T11:46:56.341Z,13.57
2022-12-25T11:48:23.446Z,12.93
2022-12-25T11:49:25.432Z,12.98
2022-12-25T11:50:51.772Z,12.95
2022-12-25T11:51:56.940Z,13.67
2022-12-25T11:53:05.157Z,12.70
2022-12-25T11:54:33.134Z,13.03
2022-12-25T11:55:43.152Z,12.90
2022-12-25T11:56:45.344Z,13.09
2022-12-25T11:58:00.197Z,13.53
2022-12-25T11:59:35.200Z,14.41
2022-12-25T12:00:37.599Z,13.34
2022-12-25T12:01:50.383Z,12.78
2022-12-25T12:03:09.655Z,12.10
2022-12-25T12:04:29.489Z,12.92
2022-12-25T12:05:46.615Z,12.34
2022-12-25T12:07:00.836Z,12.78
2022-12-25T12:08:06.079Z,12.88
2022-12-25T12:09:50.085Z,14.69
2022-12-25T12:11:16.184Z,16.75
2022-12-25T12:12:29.909Z,13.60
2022-12-25T12:13:42.242Z,13.76
2022-12-25T12:15:22.040Z,13.99
2022-12-25T12:16:24.631Z,14.04
2022-12-25T12:17:26.830Z,14.17
2022-12-25T12:18:32.595Z,15.07
2022-12-25T12:19:35.026Z,14.07
2022-12-25T12:20:37.777Z,14.49
2022-12-25T12:21:44.177Z,14.90
2022-12-25T12:22:51.437Z,15.56
2022-12-25T12:24:03.473Z,16.43
2022-12-25T12:25:07.794Z,16.05
2022-12-25T12:26:22.647Z,16.40
2022-12-25T12:27:42.001Z,17.87
2022-12-25T12:28:47.714Z,17.00
2022-12-25T12:29:55.312Z,16.52
2022-12-25T12:31:02.387Z,15.48
2022-12-25T12:32:06.468Z,15.64
2022-12-25T12:33:20.790Z,17.51
2022-12-25T12:34:37.044Z,16.98
2022-12-25T12:35:40.901Z,18.86
2022-12-25T12:36:43.126Z,22.13
2022-12-25T12:37:51.267Z,21.13
2022-12-25T12:38:57.093Z,34.66
2022-12-25T12:40:00.228Z,82.02
2022-12-25T12:41:07.053Z,32.96
2022-12-25T12:42:21.153Z,22.58
2022-12-25T12:43:35.747Z,22.10
2022-12-25T12:44:37.812Z,26.29
2022-12-25T12:45:39.758Z,40.99
2022-12-25T12:46:52.215Z,37.04
2022-12-25T12:47:54.739Z,37.94
2022-12-25T12:49:26.212Z,32.84
2022-12-25T12:50:41.084Z,48.00
2022-12-25T12:51:43.186Z,72.43
2022-12-25T12:52:45.168Z,49.28
2022-12-25T12:53:47.427Z,29.05
2022-12-25T12:55:00.090Z,28.73
2022-12-25T12:56:18.394Z,27.31
2022-12-25T12:57:26.997Z,22.41
2022-12-25T12:58:35.963Z,23.82
2022-12-25T12:59:44.557Z,27.27
2022-12-25T13:00:58.160Z,25.13
2022-12-25T13:02:26.997Z,41.07
2022-12-25T13:04:10.790Z,34.10
2022-12-25T13:05:36.932Z,53.27
2022-12-25T13:07:02.968Z,23.81
2022-12-25T13:08:42.802Z,23.19
2022-12-25T13:10:11.098Z,30.30
2022-12-25T13:11:27.022Z,36.38
2022-12-25T13:12:29.657Z,32.98
2022-12-25T13:13:39.622Z,28.03
2022-12-25T13:14:47.264Z,19.90
2022-12-25T13:15:51.863Z,18.43
2022-12-25T13:16:54.822Z,27.18
2022-12-25T13:18:07.291Z,76.22
2022-12-25T13:19:17.877Z,94.17
2022-12-25T13:20:46.959Z,79.26
2022-12-25T13:22:01.195Z,42.05
2022-12-25T13:23:24.624Z,31.91
2022-12-25T13:24:29.665Z,21.59
2022-12-25T13:25:31.668Z,19.95
2022-12-25T13:26:33.681Z,20.10
2022-12-25T13:27:35.618Z,20.36
2022-12-25T13:28:37.581Z,18.74
2022-12-25T13:29:39.437Z,17.36
2022-12-25T13:30:42.623Z,17.18
2022-12-25T13:31:44.833Z,16.88
2022-12-25T13:32:47.072Z,17.67
2022-12-25T13:33:56.462Z,17.19
2022-12-25T13:35:00.634Z,16.71
2022-12-25T13:36:04.282Z,16.77
2022-12-25T13:37:14.707Z,16.26
2022-12-25T13:38:18.298Z,37.34
2022-12-25T13:39:20.665Z,47.59
2022-12-25T13:40:28.113Z,40.41
2022-12-25T13:42:02.441Z,30.22
2022-12-25T13:43:05.070Z,23.98
2022-12-25T13:44:20.485Z,21.38
2022-12-25T13:45:27.464Z,18.66
2022-12-25T13:46:29.972Z,17.99
2022-12-25T13:47:37.124Z,17.24
2022-12-25T13:48:39.059Z,17.45
2022-12-25T13:49:41.914Z,18.30
2022-12-25T13:50:48.820Z,17.59
2022-12-25T13:51:51.469Z,17.58
2022-12-25T13:52:55.190Z,17.12
2022-12-25T13:54:09.190Z,16.44
2022-12-25T13:55:18.961Z,15.99
2022-12-25T13:56:20.925Z,15.84
2022-12-25T13:57:29.405Z,15.14
2022-12-25T13:58:36.931Z,14.91
2022-12-25T13:59:39.303Z,16.32
2022-12-25T14:00:52.967Z,16.79
2022-12-25T14:01:57.198Z,18.46
2022-12-25T14:03:00.500Z,22.91
2022-12-25T14:04:03.995Z,23.21
2022-12-25T14:05:42.817Z,20.94
2022-12-25T14:06:45.578Z,19.22
2022-12-25T14:07:56.108Z,17.13
2022-12-25T14:08:59.681Z,17.20
2022-12-25T14:10:04.314Z,17.65
2022-12-25T14:11:08.311Z,18.00
2022-12-25T14:12:15.708Z,16.68
2022-12-25T14:13:26.279Z,14.99
2022-12-25T14:14:28.487Z,14.68
2022-12-25T14:15:33.244Z,15.56
2022-12-25T14:16:35.941Z,15.43
2022-12-25T14:17:38.089Z,14.31
2022-12-25T14:18:57.628Z,12.95
2022-12-25T14:20:07.896Z,13.40
2022-12-25T14:21:23.158Z,11.55
2022-12-25T14:22:28.265Z,11.37
2022-12-25T14:23:48.142Z,11.59
2022-12-25T14:24:50.306Z,12.45
2022-12-25T14:25:52.993Z,12.32
2022-12-25T14:27:00.877Z,12.18
2022-12-25T14:28:15.543Z,12.63
2022-12-25T14:29:23.664Z,12.43
2022-12-25T14:30:30.174Z,12.58
2022-12-25T14:31:34.047Z,12.20
2022-12-25T14:32:44.590Z,13.23
2022-12-25T14:33:48.237Z,13.72
2022-12-25T14:34:59.375Z,13.65
2022-12-25T14:36:01.352Z,13.65
2022-12-25T14:37:04.369Z,13.64
2022-12-25T14:38:07.507Z,14.81
2022-12-25T14:39:30.752Z,13.79
2022-12-25T14:40:36.129Z,14.30
2022-12-25T14:41:42.060Z,14.78
2022-12-25T14:42:56.563Z,15.73
2022-12-25T14:44:00.622Z,17.00